Katharina — V2DQ5 — position and weather

sailwx.info

Track history (hours):
 
Tides and Currents Weather Stations Pressure Air Temp Water Temp Dewpoint Dewpoint Depression Visibility Wind Speed Wind Dir Waves Ship Positions

Katharina

Last reported at 2015-Jan-24 05:33 UTC. Time now 2015-Jan-31 07:07 UTC.
Position N 57°35' W 001°20'.

Length 146 m; draft 6.8 m.

Type: Ship. MMSI: 305305000.

Date/timePositionNaut miles runAvg speedWind from/ knotsBaromVisibWave heightAir tempDewpointWater temp
2015-Jan-24 05:33N 57°35' W 001°20'18011.2
2015-Jan-23 13:34N 54°40' W 000°01'1313.3
2015-Jan-23 12:33N 54°28' E 000°07'1413.9
2015-Jan-23 11:33N 54°15' E 000°15'1413.9
2015-Jan-23 10:31N 54°01' E 000°21'1313.4
2015-Jan-23 09:33N 53°48' E 000°24'1212.0
2015-Jan-23 08:34N 53°36' E 000°20'9 9.2
2015-Jan-23 07:33N 53°34' E 000°05'10 9.9
2015-Jan-23 06:33N 53°39' W 000°10'7 6.8
2015-Jan-23 05:31N 53°44' W 000°16'0 0.2
2015-Jan-23 04:31N 53°45' W 000°16'0 0.0
2015-Jan-23 03:31N 53°45' W 000°16'0 0.0
2015-Jan-23 02:32N 53°45' W 000°16'0 0.0
2015-Jan-23 01:31N 53°45' W 000°16'0 0.0
2015-Jan-23 00:31N 53°45' W 000°16'0 0.0
2015-Jan-22 23:31N 53°45' W 000°16'0 0.0
2015-Jan-22 22:31N 53°45' W 000°16'0 0.0
2015-Jan-22 21:31N 53°45' W 000°16'0 0.0
2015-Jan-22 20:31N 53°45' W 000°16'0 0.0
2015-Jan-22 19:28N 53°45' W 000°16'0 0.0
2015-Jan-22 18:31N 53°45' W 000°16'0 0.0
2015-Jan-22 17:25N 53°45' W 000°16'0 0.2
2015-Jan-22 16:33N 53°44' W 000°16'0 0.3
2015-Jan-22 15:34N 53°44' W 000°17'8 8.0
2015-Jan-22 14:34N 53°38' W 000°08'10 9.6
2015-Jan-22 13:34N 53°33' E 000°05'0 0.1
2015-Jan-22 12:31N 53°33' E 000°06'0 0.0
2015-Jan-22 11:25N 53°33' E 000°06'0 0.2
2015-Jan-22 10:33N 53°33' E 000°06'6 5.7
2015-Jan-22 09:33N 53°36' W 000°02'10 9.5
2015-Jan-22 08:32N 53°33' E 000°13'3 3.1
2015-Jan-22 07:32N 53°33' E 000°18'5110.3
2015-Jan-22 02:33N 53°08' E 001°34'10611.3
2015-Jan-21 17:12N 52°03' E 003°51'6 9.7
2015-Jan-21 16:33N 52°00' E 004°00'1110.5
2015-Jan-21 15:33N 51°55' E 004°15'7 5.7
2015-Jan-21 14:24N 51°53' E 004°25'0 0.0
2015-Jan-21 13:24N 51°53' E 004°25'0 0.0
2015-Jan-21 12:24N 51°53' E 004°25'0 0.0
2015-Jan-21 11:33N 51°53' E 004°25'0 0.0
2015-Jan-21 10:33N 51°53' E 004°25'0 0.0
2015-Jan-21 09:30N 51°53' E 004°25'0 0.0
2015-Jan-21 08:33N 51°53' E 004°25'0 0.0
2015-Jan-21 07:30N 51°53' E 004°25'0 0.0
2015-Jan-21 06:33N 51°53' E 004°25'0 0.0
2015-Jan-21 05:15N 51°53' E 004°25'0 0.0
2015-Jan-21 04:24N 51°53' E 004°25'0 0.0
2015-Jan-21 03:30N 51°53' E 004°25'0 0.0
2015-Jan-21 02:30N 51°53' E 004°25'0 0.0
2015-Jan-21 01:30N 51°53' E 004°25'0 0.0
2015-Jan-21 00:30N 51°53' E 004°25'0 0.0
2015-Jan-20 23:30N 51°53' E 004°25'0 0.0
2015-Jan-20 22:33N 51°53' E 004°25'0 0.0
2015-Jan-20 21:33N 51°53' E 004°25'0 0.0
2015-Jan-20 20:30N 51°53' E 004°25'0 0.0
2015-Jan-20 19:33N 51°53' E 004°25'0 0.0
2015-Jan-20 18:27N 51°53' E 004°25'0 0.0
2015-Jan-20 17:24N 51°53' E 004°25'0 0.0
2015-Jan-20 16:30N 51°53' E 004°25'0 0.0
2015-Jan-20 15:30N 51°53' E 004°25'0 0.0
2015-Jan-20 14:33N 51°53' E 004°25'0 0.0
2015-Jan-20 13:33N 51°53' E 004°25'0 0.0
2015-Jan-20 12:27N 51°53' E 004°25'0 0.0
2015-Jan-20 11:30N 51°53' E 004°25'0 0.0
2015-Jan-20 10:33N 51°53' E 004°25'0 0.0
2015-Jan-20 09:33N 51°53' E 004°25'0 0.0
2015-Jan-20 08:30N 51°53' E 004°25'0 0.0
2015-Jan-20 07:24N 51°53' E 004°25'0 0.0
2015-Jan-20 06:24N 51°53' E 004°25'0 0.0
2015-Jan-20 05:18N 51°53' E 004°25'0 0.0
2015-Jan-20 04:28N 51°53' E 004°25'0 0.0
2015-Jan-20 03:24N 51°53' E 004°25'0 0.0
2015-Jan-20 02:18N 51°53' E 004°25'0 0.0
2015-Jan-20 01:12N 51°53' E 004°25'0 0.0
2015-Jan-20 00:24N 51°53' E 004°25'0 0.0
2015-Jan-19 23:33N 51°53' E 004°25'0 0.0
2015-Jan-19 22:33N 51°53' E 004°25'0 0.0
2015-Jan-19 21:33N 51°53' E 004°25'0 0.0
2015-Jan-19 20:33N 51°53' E 004°25'0 0.0
2015-Jan-19 19:34N 51°53' E 004°25'0 0.0
2015-Jan-19 18:33N 51°53' E 004°25'0 0.0
2015-Jan-19 17:33N 51°53' E 004°25'0 0.0
2015-Jan-19 16:31N 51°53' E 004°25'1 1.2
2015-Jan-19 15:34N 51°54' E 004°24'8 8.4
2015-Jan-19 14:33N 51°57' E 004°11'  
2015-Jan-15 04:32N 66°17' E 012°21'  
Track history (hours):
 
Tides and Currents Weather Stations Pressure Air Temp Water Temp Dewpoint Dewpoint Depression Visibility Wind Speed Wind Dir Waves Ship Positions

Katharina

Last reported at 2015-Jan-24 05:33 UTC. Time now 2015-Jan-31 07:07 UTC.
Position N 57°35' W 001°20'.

Length 146 m; draft 6.8 m.

Type: Ship. MMSI: 305305000.

Date/timePositionNaut miles runAvg speedWind from/ knotsBaromVisibWave heightAir tempDewpointWater temp
2015-Jan-24 05:33N 57°35' W 001°20'18011.2
2015-Jan-23 13:34N 54°40' W 000°01'1313.3
2015-Jan-23 12:33N 54°28' E 000°07'1413.9
2015-Jan-23 11:33N 54°15' E 000°15'1413.9
2015-Jan-23 10:31N 54°01' E 000°21'1313.4
2015-Jan-23 09:33N 53°48' E 000°24'1212.0
2015-Jan-23 08:34N 53°36' E 000°20'9 9.2
2015-Jan-23 07:33N 53°34' E 000°05'10 9.9
2015-Jan-23 06:33N 53°39' W 000°10'7 6.8
2015-Jan-23 05:31N 53°44' W 000°16'0 0.2
2015-Jan-23 04:31N 53°45' W 000°16'0 0.0
2015-Jan-23 03:31N 53°45' W 000°16'0 0.0
2015-Jan-23 02:32N 53°45' W 000°16'0 0.0
2015-Jan-23 01:31N 53°45' W 000°16'0 0.0
2015-Jan-23 00:31N 53°45' W 000°16'0 0.0
2015-Jan-22 23:31N 53°45' W 000°16'0 0.0
2015-Jan-22 22:31N 53°45' W 000°16'0 0.0
2015-Jan-22 21:31N 53°45' W 000°16'0 0.0
2015-Jan-22 20:31N 53°45' W 000°16'0 0.0
2015-Jan-22 19:28N 53°45' W 000°16'0 0.0
2015-Jan-22 18:31N 53°45' W 000°16'0 0.0
2015-Jan-22 17:25N 53°45' W 000°16'0 0.2
2015-Jan-22 16:33N 53°44' W 000°16'0 0.3
2015-Jan-22 15:34N 53°44' W 000°17'8 8.0
2015-Jan-22 14:34N 53°38' W 000°08'10 9.6
2015-Jan-22 13:34N 53°33' E 000°05'0 0.1
2015-Jan-22 12:31N 53°33' E 000°06'0 0.0
2015-Jan-22 11:25N 53°33' E 000°06'0 0.2
2015-Jan-22 10:33N 53°33' E 000°06'6 5.7
2015-Jan-22 09:33N 53°36' W 000°02'10 9.5
2015-Jan-22 08:32N 53°33' E 000°13'3 3.1
2015-Jan-22 07:32N 53°33' E 000°18'5110.3
2015-Jan-22 02:33N 53°08' E 001°34'10611.3
2015-Jan-21 17:12N 52°03' E 003°51'6 9.7
2015-Jan-21 16:33N 52°00' E 004°00'1110.5
2015-Jan-21 15:33N 51°55' E 004°15'7 5.7
2015-Jan-21 14:24N 51°53' E 004°25'0 0.0
2015-Jan-21 13:24N 51°53' E 004°25'0 0.0
2015-Jan-21 12:24N 51°53' E 004°25'0 0.0
2015-Jan-21 11:33N 51°53' E 004°25'0 0.0
2015-Jan-21 10:33N 51°53' E 004°25'0 0.0
2015-Jan-21 09:30N 51°53' E 004°25'0 0.0
2015-Jan-21 08:33N 51°53' E 004°25'0 0.0
2015-Jan-21 07:30N 51°53' E 004°25'0 0.0
2015-Jan-21 06:33N 51°53' E 004°25'0 0.0
2015-Jan-21 05:15N 51°53' E 004°25'0 0.0
2015-Jan-21 04:24N 51°53' E 004°25'0 0.0
2015-Jan-21 03:30N 51°53' E 004°25'0 0.0
2015-Jan-21 02:30N 51°53' E 004°25'0 0.0
2015-Jan-21 01:30N 51°53' E 004°25'0 0.0
2015-Jan-21 00:30N 51°53' E 004°25'0 0.0
2015-Jan-20 23:30N 51°53' E 004°25'0 0.0
2015-Jan-20 22:33N 51°53' E 004°25'0 0.0
2015-Jan-20 21:33N 51°53' E 004°25'0 0.0
2015-Jan-20 20:30N 51°53' E 004°25'0 0.0
2015-Jan-20 19:33N 51°53' E 004°25'0 0.0
2015-Jan-20 18:27N 51°53' E 004°25'0 0.0
2015-Jan-20 17:24N 51°53' E 004°25'0 0.0
2015-Jan-20 16:30N 51°53' E 004°25'0 0.0
2015-Jan-20 15:30N 51°53' E 004°25'0 0.0
2015-Jan-20 14:33N 51°53' E 004°25'0 0.0
2015-Jan-20 13:33N 51°53' E 004°25'0 0.0
2015-Jan-20 12:27N 51°53' E 004°25'0 0.0
2015-Jan-20 11:30N 51°53' E 004°25'0 0.0
2015-Jan-20 10:33N 51°53' E 004°25'0 0.0
2015-Jan-20 09:33N 51°53' E 004°25'0 0.0
2015-Jan-20 08:30N 51°53' E 004°25'0 0.0
2015-Jan-20 07:24N 51°53' E 004°25'0 0.0
2015-Jan-20 06:24N 51°53' E 004°25'0 0.0
2015-Jan-20 05:18N 51°53' E 004°25'0 0.0
2015-Jan-20 04:28N 51°53' E 004°25'0 0.0
2015-Jan-20 03:24N 51°53' E 004°25'0 0.0
2015-Jan-20 02:18N 51°53' E 004°25'0 0.0
2015-Jan-20 01:12N 51°53' E 004°25'0 0.0
2015-Jan-20 00:24N 51°53' E 004°25'0 0.0
2015-Jan-19 23:33N 51°53' E 004°25'0 0.0
2015-Jan-19 22:33N 51°53' E 004°25'0 0.0
2015-Jan-19 21:33N 51°53' E 004°25'0 0.0
2015-Jan-19 20:33N 51°53' E 004°25'0 0.0
2015-Jan-19 19:34N 51°53' E 004°25'0 0.0
2015-Jan-19 18:33N 51°53' E 004°25'0 0.0
2015-Jan-19 17:33N 51°53' E 004°25'0 0.0
2015-Jan-19 16:31N 51°53' E 004°25'1 1.2
2015-Jan-19 15:34N 51°54' E 004°24'8 8.4
2015-Jan-19 14:33N 51°57' E 004°11'  
2015-Jan-15 04:32N 66°17' E 012°21'  

Dump ship's entire track history